KBWD/BWD METAR and TAF weather

Enter ICAO airport designator
Station Type Date Time Source
KBWD METAR 2020/08/11 17:55 UTC NOAA

KBWD 111755Z AUTO 17008G15KT 140V210 8SM CLR 35/18 A2998 RMK AO1


Station Type Date Time Source
KBWD Decoded METAR 2020/08/11 17:55 UTC NOAA

Brownwood, Brownwood Regional Airport, TX, United States (KBWD) 31-48N 098-57W
Aug 11, 2020 - 01:55 PM EDT / 2020.08.11 1755 UTC
Wind: from the S (170 degrees) at 9 MPH (8 KT) gusting to 17 MPH (15 KT) (direction variable):0
Visibility: 8 mile(s):0
Sky conditions: clear
Temperature: 95 F (35 C)
Heat index: 97.0 F (36.1 C):1
Dew Point: 64 F (18 C)
Relative Humidity: 36%
Pressure (altimeter): 29.98 in. Hg (1015 hPa)
ob: KBWD 111755Z AUTO 17008G15KT 140V210 8SM CLR 35/18 A2998 RMK AO1
cycle: 18

Station Type Date Time Source
KBWD TAF UTC NOAA

Error!

Example: see airport list